Terminal Aerodrome Forecast
Issued by NWS

Home | Current Version | Previous Version | Text Only | Print | Product List | Glossary Off
Versions: 1 2 3 4 5 6 7 8 9 10 11 12 13 14 15 16 17 18 19 20 21

000
FTUS43 KTOP 191720
TAFMHK
TAF
KMHK 191720Z 1918/2018 04005KT P6SM VCTS OVC006CB
      TEMPO 1919/1923 4SM TS OVC008CB
     FM192300 04008KT 4SM SHRA VCTS OVC008CB
     FM200300 05006KT 5SM SHRA OVC003
     FM201200 29008KT P6SM BKN010=

USA.gov is the U.S. government's official web portal to all federal, state and local government web resources and services.